メインページ
METAR-TAF:

METAR-TAF

空港 :

バーレーン, バーレーン

バーレーン国際空港

緯度: 26-16N, 経度: 050-39E, 海抜: 2m

現時点の気象観測

当レポートは34分前の19:00(UTC)に作成
の風 6kt
気温 19°C
湿度 88%
気圧 1015 hPa
視程: 4000m
晴天
煙霧

METAR: OBBI 251900Z 01006KT 4000 HZ SKC 19/17 Q1015 NOSIG

時間: 22:34 (19:34 UTC)

予報

当レポートは2時間34分前の17:00(UTC)に作成
予報は25日の 18時(UTC)から 27日の 00時(UTC)まで有効
北東の風 10kt
視程: 4000m
高度1500ftの雲はほとんどない
煙霧
確率 30% :
25日の 21時(UTC)から 26日の 06時(UTC)まで一時的に
変向風 5kt
視程: 2000m
高度800ftの雲は散在している
26日の 06時(UTC)から 26日の 08時(UTC)まで徐々に
視程: 8000m

TAF: OBBI 251700Z 2518/2700 04010KT 4000 HZ FEW015 PROB30 TEMPO 2521/2606 VRB05KT 2000 BR SCT008 BECMG 2606/2608 8000 NSC

4,000以上の空港の気象観測と天気予報(METAR報とTAF報)

利用可能な観測所は地図上に黄色い丸と赤い丸で示す。

丸の上にカーソルを重ねると観測所名を参照できる。

次にクリックすると気象観測と天気予報を参照できる。

マップの切り替え:黒色「×」印の緑ボタンをクリックして拡大、「-」印の緑ボタンをクリックして縮小、緑色の三角印をクリックして隣りの地図に切り替え


METAR-TAF: